sensor_id;sensor_type;location;lat;lon;timestamp;pressure;altitude;pressure_sealevel;temperature;humidity
70248;BME280;57641;51.416;5.506;2024-03-22T00:00:56;102260.94;;;15.34;65.64
70248;BME280;57641;51.416;5.506;2024-03-22T00:03:22;102266.81;;;15.56;65.26
70248;BME280;57641;51.416;5.506;2024-03-22T00:05:47;102262.81;;;15.33;65.68
70248;BME280;57641;51.416;5.506;2024-03-22T00:08:13;102260.75;;;15.45;65.31
70248;BME280;57641;51.416;5.506;2024-03-22T00:10:38;102255.94;;;15.48;65.28
70248;BME280;57641;51.416;5.506;2024-03-22T00:13:04;102251.50;;;15.30;66.06
70248;BME280;57641;51.416;5.506;2024-03-22T00:15:29;102245.75;;;15.52;64.98
70248;BME280;57641;51.416;5.506;2024-03-22T00:17:54;102251.97;;;15.52;65.23
70248;BME280;57641;51.416;5.506;2024-03-22T00:20:20;102249.22;;;15.62;65.55
70248;BME280;57641;51.416;5.506;2024-03-22T00:22:45;102252.91;;;15.61;65.34
70248;BME280;57641;51.416;5.506;2024-03-22T00:25:11;102242.00;;;15.62;65.78
70248;BME280;57641;51.416;5.506;2024-03-22T00:27:36;102244.09;;;15.69;64.67
70248;BME280;57641;51.416;5.506;2024-03-22T00:30:02;102241.84;;;15.82;64.79
70248;BME280;57641;51.416;5.506;2024-03-22T00:32:28;102242.03;;;15.80;64.74
70248;BME280;57641;51.416;5.506;2024-03-22T00:34:53;102240.28;;;15.44;66.12
70248;BME280;57641;51.416;5.506;2024-03-22T00:37:18;102241.16;;;15.62;65.37
70248;BME280;57641;51.416;5.506;2024-03-22T00:39:44;102245.81;;;15.60;65.77
70248;BME280;57641;51.416;5.506;2024-03-22T00:42:09;102229.72;;;15.50;66.01
70248;BME280;57641;51.416;5.506;2024-03-22T00:44:35;102227.91;;;15.51;66.42
70248;BME280;57641;51.416;5.506;2024-03-22T00:47:00;102219.09;;;15.76;65.52
70248;BME280;57641;51.416;5.506;2024-03-22T00:49:29;102227.72;;;15.62;66.02
70248;BME280;57641;51.416;5.506;2024-03-22T00:51:54;102216.72;;;15.73;65.39
70248;BME280;57641;51.416;5.506;2024-03-22T00:54:21;102210.13;;;15.68;65.99
70248;BME280;57641;51.416;5.506;2024-03-22T00:56:47;102199.91;;;15.71;66.20
70248;BME280;57641;51.416;5.506;2024-03-22T00:59:13;102194.84;;;15.68;65.76
70248;BME280;57641;51.416;5.506;2024-03-22T01:01:38;102187.16;;;15.73;65.75
70248;BME280;57641;51.416;5.506;2024-03-22T01:04:04;102188.31;;;15.53;66.72
70248;BME280;57641;51.416;5.506;2024-03-22T01:06:29;102177.81;;;15.59;66.73
70248;BME280;57641;51.416;5.506;2024-03-22T01:08:55;102176.16;;;15.67;66.08
70248;BME280;57641;51.416;5.506;2024-03-22T01:11:20;102170.19;;;15.73;65.86
70248;BME280;57641;51.416;5.506;2024-03-22T01:13:46;102171.53;;;15.77;65.62
70248;BME280;57641;51.416;5.506;2024-03-22T01:16:11;102162.63;;;15.94;65.14
70248;BME280;57641;51.416;5.506;2024-03-22T01:18:37;102154.81;;;16.09;64.43
70248;BME280;57641;51.416;5.506;2024-03-22T01:21:02;102152.38;;;15.97;64.84
70248;BME280;57641;51.416;5.506;2024-03-22T01:23:28;102156.13;;;15.79;65.19
70248;BME280;57641;51.416;5.506;2024-03-22T01:25:54;102155.91;;;15.98;65.28
70248;BME280;57641;51.416;5.506;2024-03-22T01:28:19;102138.50;;;15.84;64.77
70248;BME280;57641;51.416;5.506;2024-03-22T01:30:44;102131.41;;;16.01;64.91
70248;BME280;57641;51.416;5.506;2024-03-22T01:33:10;102136.56;;;15.94;64.98
70248;BME280;57641;51.416;5.506;2024-03-22T01:35:35;102139.03;;;15.88;65.41
70248;BME280;57641;51.416;5.506;2024-03-22T01:38:01;102141.25;;;15.92;65.28
70248;BME280;57641;51.416;5.506;2024-03-22T01:40:26;102153.91;;;15.74;66.03
70248;BME280;57641;51.416;5.506;2024-03-22T01:42:58;102140.97;;;15.78;65.53
70248;BME280;57641;51.416;5.506;2024-03-22T01:45:25;102135.13;;;15.82;65.37
70248;BME280;57641;51.416;5.506;2024-03-22T01:47:53;102128.75;;;15.48;66.47
70248;BME280;57641;51.416;5.506;2024-03-22T01:50:23;102126.16;;;15.74;65.85
70248;BME280;57641;51.416;5.506;2024-03-22T01:52:49;102127.13;;;15.90;65.39
70248;BME280;57641;51.416;5.506;2024-03-22T01:55:14;102127.97;;;15.91;64.83
70248;BME280;57641;51.416;5.506;2024-03-22T01:57:40;102128.97;;;15.90;65.35
70248;BME280;57641;51.416;5.506;2024-03-22T02:00:06;102129.31;;;15.69;65.71
70248;BME280;57641;51.416;5.506;2024-03-22T02:02:35;102124.00;;;15.77;65.59
70248;BME280;57641;51.416;5.506;2024-03-22T02:05:17;102126.53;;;15.61;65.78
70248;BME280;57641;51.416;5.506;2024-03-22T02:07:45;102112.28;;;15.86;65.22
70248;BME280;57641;51.416;5.506;2024-03-22T02:10:14;102103.84;;;15.81;64.88
70248;BME280;57641;51.416;5.506;2024-03-22T02:12:40;102110.25;;;15.80;65.21
70248;BME280;57641;51.416;5.506;2024-03-22T02:15:06;102113.44;;;15.58;65.90
70248;BME280;57641;51.416;5.506;2024-03-22T02:17:35;102116.34;;;15.65;65.12
70248;BME280;57641;51.416;5.506;2024-03-22T02:20:01;102116.84;;;15.50;66.09
70248;BME280;57641;51.416;5.506;2024-03-22T02:22:29;102119.16;;;15.81;65.13
70248;BME280;57641;51.416;5.506;2024-03-22T02:24:54;102117.63;;;15.60;65.13
70248;BME280;57641;51.416;5.506;2024-03-22T02:27:19;102102.19;;;15.62;64.88
70248;BME280;57641;51.416;5.506;2024-03-22T02:29:45;102097.91;;;15.52;65.29
70248;BME280;57641;51.416;5.506;2024-03-22T02:32:10;102093.09;;;15.81;64.42
70248;BME280;57641;51.416;5.506;2024-03-22T02:34:36;102091.59;;;15.43;65.32
70248;BME280;57641;51.416;5.506;2024-03-22T02:37:02;102098.34;;;15.47;64.94
70248;BME280;57641;51.416;5.506;2024-03-22T02:39:27;102101.22;;;15.63;64.66
70248;BME280;57641;51.416;5.506;2024-03-22T02:41:54;102113.38;;;15.76;64.27
70248;BME280;57641;51.416;5.506;2024-03-22T02:44:19;102103.66;;;15.57;65.12
70248;BME280;57641;51.416;5.506;2024-03-22T02:46:45;102097.66;;;15.45;64.97
70248;BME280;57641;51.416;5.506;2024-03-22T02:49:11;102094.13;;;15.80;64.65
70248;BME280;57641;51.416;5.506;2024-03-22T02:51:36;102092.91;;;15.57;65.22
70248;BME280;57641;51.416;5.506;2024-03-22T02:54:01;102085.69;;;15.75;64.27
70248;BME280;57641;51.416;5.506;2024-03-22T02:56:27;102094.47;;;15.59;64.89
70248;BME280;57641;51.416;5.506;2024-03-22T02:58:53;102082.34;;;15.81;63.96
70248;BME280;57641;51.416;5.506;2024-03-22T03:01:18;102075.66;;;15.59;64.15
70248;BME280;57641;51.416;5.506;2024-03-22T03:03:44;102065.56;;;15.61;63.91
70248;BME280;57641;51.416;5.506;2024-03-22T03:06:09;102052.84;;;15.72;63.48
70248;BME280;57641;51.416;5.506;2024-03-22T03:08:35;102046.69;;;15.53;64.07
70248;BME280;57641;51.416;5.506;2024-03-22T03:11:00;102037.81;;;15.61;64.45
70248;BME280;57641;51.416;5.506;2024-03-22T03:13:29;102031.16;;;15.47;64.31
70248;BME280;57641;51.416;5.506;2024-03-22T03:15:54;102030.72;;;15.52;64.35
70248;BME280;57641;51.416;5.506;2024-03-22T03:18:19;102019.19;;;15.42;64.50
70248;BME280;57641;51.416;5.506;2024-03-22T03:20:45;102030.56;;;15.53;64.01
70248;BME280;57641;51.416;5.506;2024-03-22T03:23:10;102028.19;;;15.15;65.13
70248;BME280;57641;51.416;5.506;2024-03-22T03:25:36;102029.31;;;15.30;64.86
70248;BME280;57641;51.416;5.506;2024-03-22T03:28:01;102024.41;;;15.26;64.65
70248;BME280;57641;51.416;5.506;2024-03-22T03:30:26;102027.47;;;15.48;63.75
70248;BME280;57641;51.416;5.506;2024-03-22T03:32:52;102028.84;;;15.35;64.30
70248;BME280;57641;51.416;5.506;2024-03-22T03:35:17;102022.63;;;15.34;64.15
70248;BME280;57641;51.416;5.506;2024-03-22T03:37:43;102021.41;;;15.29;64.60
70248;BME280;57641;51.416;5.506;2024-03-22T03:40:08;102017.03;;;15.63;63.43
70248;BME280;57641;51.416;5.506;2024-03-22T03:42:34;102004.88;;;15.15;64.23
70248;BME280;57641;51.416;5.506;2024-03-22T03:44:59;102004.34;;;15.55;63.29
70248;BME280;57641;51.416;5.506;2024-03-22T03:47:25;101998.44;;;15.34;63.84
70248;BME280;57641;51.416;5.506;2024-03-22T03:49:50;102001.00;;;15.53;63.44
70248;BME280;57641;51.416;5.506;2024-03-22T03:52:17;101992.53;;;15.48;63.56
70248;BME280;57641;51.416;5.506;2024-03-22T03:54:42;101985.09;;;15.42;63.58
70248;BME280;57641;51.416;5.506;2024-03-22T03:57:08;101976.94;;;15.34;63.41
70248;BME280;57641;51.416;5.506;2024-03-22T03:59:33;101975.69;;;15.20;63.95
70248;BME280;57641;51.416;5.506;2024-03-22T04:01:59;101975.31;;;15.15;64.52
70248;BME280;57641;51.416;5.506;2024-03-22T04:04:24;101975.47;;;15.40;63.74
70248;BME280;57641;51.416;5.506;2024-03-22T04:06:50;101977.97;;;15.33;63.75
70248;BME280;57641;51.416;5.506;2024-03-22T04:09:15;101977.28;;;15.31;63.76
70248;BME280;57641;51.416;5.506;2024-03-22T04:11:40;101972.31;;;15.44;62.83
70248;BME280;57641;51.416;5.506;2024-03-22T04:14:06;101974.19;;;15.44;63.23
70248;BME280;57641;51.416;5.506;2024-03-22T04:16:31;101968.09;;;15.16;64.30
70248;BME280;57641;51.416;5.506;2024-03-22T04:18:57;101976.09;;;15.34;63.44
70248;BME280;57641;51.416;5.506;2024-03-22T04:21:23;101970.47;;;15.19;64.29
70248;BME280;57641;51.416;5.506;2024-03-22T04:23:48;101969.34;;;15.04;64.71
70248;BME280;57641;51.416;5.506;2024-03-22T04:26:14;101969.25;;;15.13;64.23
70248;BME280;57641;51.416;5.506;2024-03-22T04:28:40;101974.28;;;14.91;64.45
70248;BME280;57641;51.416;5.506;2024-03-22T04:31:07;101980.91;;;15.04;64.51
70248;BME280;57641;51.416;5.506;2024-03-22T04:33:34;101973.84;;;15.03;64.27
70248;BME280;57641;51.416;5.506;2024-03-22T04:36:00;101971.63;;;15.16;64.35
70248;BME280;57641;51.416;5.506;2024-03-22T04:38:27;101981.31;;;15.09;64.67
70248;BME280;57641;51.416;5.506;2024-03-22T04:40:53;101975.00;;;15.18;63.85
70248;BME280;57641;51.416;5.506;2024-03-22T04:43:19;101973.25;;;15.09;64.07
70248;BME280;57641;51.416;5.506;2024-03-22T04:45:46;101977.75;;;15.27;63.42
70248;BME280;57641;51.416;5.506;2024-03-22T04:48:17;101979.63;;;15.34;63.02
70248;BME280;57641;51.416;5.506;2024-03-22T04:50:44;101978.34;;;15.38;62.77
70248;BME280;57641;51.416;5.506;2024-03-22T04:53:09;101985.44;;;14.86;64.13
70248;BME280;57641;51.416;5.506;2024-03-22T04:55:35;101976.78;;;15.10;64.21
70248;BME280;57641;51.416;5.506;2024-03-22T04:58:00;101969.81;;;14.99;64.05
70248;BME280;57641;51.416;5.506;2024-03-22T05:00:27;101968.56;;;15.11;64.03
70248;BME280;57641;51.416;5.506;2024-03-22T05:02:52;101964.66;;;14.70;64.57
70248;BME280;57641;51.416;5.506;2024-03-22T05:05:18;101964.03;;;15.12;63.80
70248;BME280;57641;51.416;5.506;2024-03-22T05:07:44;101968.34;;;15.05;63.40
70248;BME280;57641;51.416;5.506;2024-03-22T05:10:09;101961.66;;;15.09;63.91
70248;BME280;57641;51.416;5.506;2024-03-22T05:12:35;101964.31;;;15.27;63.09
70248;BME280;57641;51.416;5.506;2024-03-22T05:15:02;101951.84;;;15.43;62.28
70248;BME280;57641;51.416;5.506;2024-03-22T05:17:28;101952.94;;;15.33;62.65
70248;BME280;57641;51.416;5.506;2024-03-22T05:19:57;101938.78;;;15.23;62.80
70248;BME280;57641;51.416;5.506;2024-03-22T05:22:22;101940.06;;;14.75;63.93
70248;BME280;57641;51.416;5.506;2024-03-22T05:24:48;101943.88;;;14.90;64.53
70248;BME280;57641;51.416;5.506;2024-03-22T05:27:13;101941.50;;;14.87;64.41
70248;BME280;57641;51.416;5.506;2024-03-22T05:29:39;101944.72;;;14.91;63.88
70248;BME280;57641;51.416;5.506;2024-03-22T05:32:05;101946.34;;;15.01;63.79
70248;BME280;57641;51.416;5.506;2024-03-22T05:34:31;101950.63;;;15.12;62.86
70248;BME280;57641;51.416;5.506;2024-03-22T05:36:56;101947.59;;;15.15;63.14
70248;BME280;57641;51.416;5.506;2024-03-22T05:39:21;101953.13;;;15.39;62.04
70248;BME280;57641;51.416;5.506;2024-03-22T05:41:47;101950.38;;;15.05;63.33
70248;BME280;57641;51.416;5.506;2024-03-22T05:44:12;101941.41;;;14.97;63.03
70248;BME280;57641;51.416;5.506;2024-03-22T05:46:38;101940.34;;;14.90;62.81
70248;BME280;57641;51.416;5.506;2024-03-22T05:49:03;101936.53;;;15.18;62.78
70248;BME280;57641;51.416;5.506;2024-03-22T05:51:29;101938.56;;;14.98;62.80
70248;BME280;57641;51.416;5.506;2024-03-22T05:53:56;101936.22;;;15.21;61.85
70248;BME280;57641;51.416;5.506;2024-03-22T05:56:22;101942.09;;;15.16;62.79
70248;BME280;57641;51.416;5.506;2024-03-22T05:58:47;101929.53;;;14.99;62.69
70248;BME280;57641;51.416;5.506;2024-03-22T06:01:13;101938.78;;;15.05;62.13
70248;BME280;57641;51.416;5.506;2024-03-22T06:03:39;101934.50;;;14.76;62.85
70248;BME280;57641;51.416;5.506;2024-03-22T06:06:04;101932.91;;;14.48;64.19
70248;BME280;57641;51.416;5.506;2024-03-22T06:08:30;101926.84;;;14.82;63.30
70248;BME280;57641;51.416;5.506;2024-03-22T06:10:59;101926.25;;;14.52;64.31
70248;BME280;57641;51.416;5.506;2024-03-22T06:13:25;101924.25;;;14.72;63.35
70248;BME280;57641;51.416;5.506;2024-03-22T06:15:50;101917.94;;;14.81;63.24
70248;BME280;57641;51.416;5.506;2024-03-22T06:18:16;101933.13;;;14.37;64.01
70248;BME280;57641;51.416;5.506;2024-03-22T06:20:42;101930.38;;;14.82;63.61
70248;BME280;57641;51.416;5.506;2024-03-22T06:23:08;101931.00;;;14.58;63.99
70248;BME280;57641;51.416;5.506;2024-03-22T06:25:34;101928.16;;;14.95;62.79
70248;BME280;57641;51.416;5.506;2024-03-22T06:28:00;101930.84;;;14.77;63.60
70248;BME280;57641;51.416;5.506;2024-03-22T06:30:25;101922.03;;;14.85;62.62
70248;BME280;57641;51.416;5.506;2024-03-22T06:32:53;101933.13;;;14.37;64.27
70248;BME280;57641;51.416;5.506;2024-03-22T06:35:20;101927.53;;;14.66;63.81
70248;BME280;57641;51.416;5.506;2024-03-22T06:37:45;101930.66;;;14.97;62.73
70248;BME280;57641;51.416;5.506;2024-03-22T06:40:11;101923.78;;;14.76;62.93
70248;BME280;57641;51.416;5.506;2024-03-22T06:42:37;101921.13;;;14.59;63.78
70248;BME280;57641;51.416;5.506;2024-03-22T06:45:03;101923.69;;;14.86;63.02
70248;BME280;57641;51.416;5.506;2024-03-22T06:47:28;101927.16;;;14.96;62.60
70248;BME280;57641;51.416;5.506;2024-03-22T06:49:54;101925.09;;;14.90;62.72
70248;BME280;57641;51.416;5.506;2024-03-22T06:52:19;101921.69;;;14.70;62.95
70248;BME280;57641;51.416;5.506;2024-03-22T06:54:45;101924.38;;;14.70;63.39
70248;BME280;57641;51.416;5.506;2024-03-22T06:57:11;101924.47;;;14.78;63.46
70248;BME280;57641;51.416;5.506;2024-03-22T06:59:36;101923.69;;;14.86;62.70
70248;BME280;57641;51.416;5.506;2024-03-22T07:02:02;101921.56;;;14.90;63.04
70248;BME280;57641;51.416;5.506;2024-03-22T07:04:28;101916.78;;;15.01;62.21
70248;BME280;57641;51.416;5.506;2024-03-22T07:06:53;101921.19;;;14.85;62.36
70248;BME280;57641;51.416;5.506;2024-03-22T07:09:19;101914.63;;;14.87;63.03
70248;BME280;57641;51.416;5.506;2024-03-22T07:11:45;101915.09;;;15.00;62.80
70248;BME280;57641;51.416;5.506;2024-03-22T07:14:10;101912.22;;;15.19;61.76
70248;BME280;57641;51.416;5.506;2024-03-22T07:16:35;101914.03;;;14.93;61.86
70248;BME280;57641;51.416;5.506;2024-03-22T07:19:02;101919.19;;;15.12;61.97
70248;BME280;57641;51.416;5.506;2024-03-22T07:21:29;101911.34;;;14.93;62.37
70248;BME280;57641;51.416;5.506;2024-03-22T07:23:55;101921.66;;;14.35;63.82
70248;BME280;57641;51.416;5.506;2024-03-22T07:26:20;101921.19;;;14.67;63.31
70248;BME280;57641;51.416;5.506;2024-03-22T07:28:45;101925.03;;;14.64;63.29
70248;BME280;57641;51.416;5.506;2024-03-22T07:31:11;101926.53;;;14.67;63.14
70248;BME280;57641;51.416;5.506;2024-03-22T07:33:36;101923.69;;;15.04;62.16
70248;BME280;57641;51.416;5.506;2024-03-22T07:36:04;101923.78;;;14.94;62.17
70248;BME280;57641;51.416;5.506;2024-03-22T07:38:30;101919.63;;;14.82;62.78
70248;BME280;57641;51.416;5.506;2024-03-22T07:40:55;101922.09;;;14.75;62.59
70248;BME280;57641;51.416;5.506;2024-03-22T07:43:21;101914.81;;;14.50;63.31
70248;BME280;57641;51.416;5.506;2024-03-22T07:45:46;101918.34;;;14.68;62.79
70248;BME280;57641;51.416;5.506;2024-03-22T07:48:12;101920.56;;;14.28;62.94
70248;BME280;57641;51.416;5.506;2024-03-22T07:50:37;101916.25;;;14.17;63.38
70248;BME280;57641;51.416;5.506;2024-03-22T07:53:03;101924.22;;;14.54;62.75
70248;BME280;57641;51.416;5.506;2024-03-22T07:55:29;101923.53;;;14.88;61.76
70248;BME280;57641;51.416;5.506;2024-03-22T07:57:54;101910.28;;;14.68;61.73
70248;BME280;57641;51.416;5.506;2024-03-22T08:00:19;101910.81;;;14.72;62.00
70248;BME280;57641;51.416;5.506;2024-03-22T08:02:45;101914.63;;;14.87;60.94
70248;BME280;57641;51.416;5.506;2024-03-22T08:05:10;101915.03;;;15.18;60.39
70248;BME280;57641;51.416;5.506;2024-03-22T08:07:36;101917.09;;;15.24;60.58
70248;BME280;57641;51.416;5.506;2024-03-22T08:10:01;101917.56;;;15.19;60.32
70248;BME280;57641;51.416;5.506;2024-03-22T08:12:28;101916.69;;;15.11;60.65
70248;BME280;57641;51.416;5.506;2024-03-22T08:14:53;101917.78;;;15.00;60.35
70248;BME280;57641;51.416;5.506;2024-03-22T08:17:19;101922.81;;;14.32;61.43
70248;BME280;57641;51.416;5.506;2024-03-22T08:19:44;101917.19;;;14.53;62.19
70248;BME280;57641;51.416;5.506;2024-03-22T08:22:10;101919.53;;;14.92;61.02
70248;BME280;57641;51.416;5.506;2024-03-22T08:24:36;101921.66;;;14.80;60.47
70248;BME280;57641;51.416;5.506;2024-03-22T08:27:03;101916.59;;;15.03;60.83
70248;BME280;57641;51.416;5.506;2024-03-22T08:29:29;101914.63;;;15.05;59.99
70248;BME280;57641;51.416;5.506;2024-03-22T08:31:55;101914.03;;;14.75;60.09
70248;BME280;57641;51.416;5.506;2024-03-22T08:34:21;101908.31;;;15.14;59.21
70248;BME280;57641;51.416;5.506;2024-03-22T08:36:47;101901.56;;;15.36;58.60
70248;BME280;57641;51.416;5.506;2024-03-22T08:39:12;101908.94;;;15.34;59.36
70248;BME280;57641;51.416;5.506;2024-03-22T08:41:38;101889.50;;;15.40;58.41
70248;BME280;57641;51.416;5.506;2024-03-22T08:44:04;101903.69;;;14.63;60.53
70248;BME280;57641;51.416;5.506;2024-03-22T08:46:30;101899.09;;;14.73;60.28
70248;BME280;57641;51.416;5.506;2024-03-22T08:48:57;101899.84;;;14.65;61.03
70248;BME280;57641;51.416;5.506;2024-03-22T08:51:22;101886.47;;;14.91;60.06
70248;BME280;57641;51.416;5.506;2024-03-22T08:53:48;101900.72;;;15.09;59.18
70248;BME280;57641;51.416;5.506;2024-03-22T08:56:13;101897.66;;;15.30;59.29
70248;BME280;57641;51.416;5.506;2024-03-22T08:58:39;101899.09;;;15.42;58.87
70248;BME280;57641;51.416;5.506;2024-03-22T09:01:05;101894.63;;;15.25;58.16
70248;BME280;57641;51.416;5.506;2024-03-22T09:03:31;101894.22;;;15.46;58.04
70248;BME280;57641;51.416;5.506;2024-03-22T09:05:56;101891.31;;;15.57;57.53
70248;BME280;57641;51.416;5.506;2024-03-22T09:08:22;101905.19;;;15.01;59.25
70248;BME280;57641;51.416;5.506;2024-03-22T09:10:47;101901.97;;;14.97;58.98
70248;BME280;57641;51.416;5.506;2024-03-22T09:13:13;101903.16;;;14.77;58.74
70248;BME280;57641;51.416;5.506;2024-03-22T09:15:39;101898.41;;;15.14;58.89
70248;BME280;57641;51.416;5.506;2024-03-22T09:18:05;101890.31;;;14.89;59.13
70248;BME280;57641;51.416;5.506;2024-03-22T09:20:31;101893.09;;;15.23;58.19
70248;BME280;57641;51.416;5.506;2024-03-22T09:22:57;101887.16;;;14.93;59.23
70248;BME280;57641;51.416;5.506;2024-03-22T09:25:26;101898.38;;;14.89;59.10
70248;BME280;57641;51.416;5.506;2024-03-22T09:27:52;101889.25;;;14.82;59.41
70248;BME280;57641;51.416;5.506;2024-03-22T09:30:17;101886.13;;;14.68;59.21
70248;BME280;57641;51.416;5.506;2024-03-22T09:32:43;101876.50;;;15.27;58.49
70248;BME280;57641;51.416;5.506;2024-03-22T09:35:09;101881.66;;;14.95;59.17
70248;BME280;57641;51.416;5.506;2024-03-22T09:37:35;101880.66;;;15.47;57.80
70248;BME280;57641;51.416;5.506;2024-03-22T09:40:01;101870.38;;;15.43;57.64
70248;BME280;57641;51.416;5.506;2024-03-22T09:42:32;101877.53;;;15.60;56.89
70248;BME280;57641;51.416;5.506;2024-03-22T09:44:58;101863.72;;;15.55;56.68
70248;BME280;57641;51.416;5.506;2024-03-22T09:47:24;101860.66;;;15.16;57.46
70248;BME280;57641;51.416;5.506;2024-03-22T09:49:52;101869.09;;;15.29;56.94
70248;BME280;57641;51.416;5.506;2024-03-22T09:52:19;101866.69;;;15.44;57.29
70248;BME280;57641;51.416;5.506;2024-03-22T09:54:45;101862.97;;;14.85;58.30
70248;BME280;57641;51.416;5.506;2024-03-22T09:57:15;101858.06;;;15.32;58.01
70248;BME280;57641;51.416;5.506;2024-03-22T09:59:42;101864.31;;;15.15;58.04
70248;BME280;57641;51.416;5.506;2024-03-22T10:02:11;101861.44;;;15.08;58.52
70248;BME280;57641;51.416;5.506;2024-03-22T10:04:40;101853.72;;;15.13;57.99
70248;BME280;57641;51.416;5.506;2024-03-22T10:07:07;101861.38;;;15.26;57.28
70248;BME280;57641;51.416;5.506;2024-03-22T10:09:41;101848.78;;;15.52;57.17
70248;BME280;57641;51.416;5.506;2024-03-22T10:12:08;101849.00;;;15.67;57.04
70248;BME280;57641;51.416;5.506;2024-03-22T10:14:34;101849.84;;;15.68;57.26
70248;BME280;57641;51.416;5.506;2024-03-22T10:17:00;101849.38;;;15.46;57.70
70248;BME280;57641;51.416;5.506;2024-03-22T10:19:25;101843.69;;;15.15;58.42
70248;BME280;57641;51.416;5.506;2024-03-22T10:22:03;101853.69;;;15.05;59.00
70248;BME280;57641;51.416;5.506;2024-03-22T10:24:30;101836.47;;;15.16;58.90
70248;BME280;57641;51.416;5.506;2024-03-22T10:26:58;101855.16;;;15.00;58.90
70248;BME280;57641;51.416;5.506;2024-03-22T10:29:23;101852.03;;;15.12;58.86
70248;BME280;57641;51.416;5.506;2024-03-22T10:31:53;101854.78;;;15.20;58.52
70248;BME280;57641;51.416;5.506;2024-03-22T10:34:21;101850.56;;;15.18;58.21
70248;BME280;57641;51.416;5.506;2024-03-22T10:36:47;101844.94;;;15.29;57.81
70248;BME280;57641;51.416;5.506;2024-03-22T10:39:16;101843.09;;;14.78;59.61
70248;BME280;57641;51.416;5.506;2024-03-22T10:41:45;101834.03;;;15.31;58.15
70248;BME280;57641;51.416;5.506;2024-03-22T10:44:12;101847.41;;;15.48;57.78
70248;BME280;57641;51.416;5.506;2024-03-22T10:46:38;101844.28;;;15.61;57.06
70248;BME280;57641;51.416;5.506;2024-03-22T10:49:06;101840.63;;;15.10;57.85
70248;BME280;57641;51.416;5.506;2024-03-22T10:51:33;101840.19;;;15.23;58.12
70248;BME280;57641;51.416;5.506;2024-03-22T10:54:01;101844.63;;;15.66;56.40
70248;BME280;57641;51.416;5.506;2024-03-22T10:56:29;101837.59;;;15.05;58.26
70248;BME280;57641;51.416;5.506;2024-03-22T10:58:55;101831.47;;;14.95;58.99
70248;BME280;57641;51.416;5.506;2024-03-22T11:01:22;101844.56;;;15.24;58.25
70248;BME280;57641;51.416;5.506;2024-03-22T11:03:48;101826.44;;;15.60;58.14
70248;BME280;57641;51.416;5.506;2024-03-22T11:06:18;101828.22;;;15.43;58.15
70248;BME280;57641;51.416;5.506;2024-03-22T11:08:44;101838.94;;;14.84;58.93
70248;BME280;57641;51.416;5.506;2024-03-22T11:11:17;101834.81;;;14.97;59.67
70248;BME280;57641;51.416;5.506;2024-03-22T11:13:43;101831.47;;;14.95;59.05
70248;BME280;57641;51.416;5.506;2024-03-22T11:16:09;101832.47;;;15.20;58.35
70248;BME280;57641;51.416;5.506;2024-03-22T11:18:35;101840.19;;;14.97;59.51
70248;BME280;57641;51.416;5.506;2024-03-22T11:21:01;101836.56;;;14.80;59.51
70248;BME280;57641;51.416;5.506;2024-03-22T11:23:28;101831.63;;;14.94;59.79
70248;BME280;57641;51.416;5.506;2024-03-22T11:25:53;101828.81;;;15.03;59.45
70248;BME280;57641;51.416;5.506;2024-03-22T11:28:19;101832.47;;;14.94;59.59
70248;BME280;57641;51.416;5.506;2024-03-22T11:30:45;101832.56;;;15.10;59.23
70248;BME280;57641;51.416;5.506;2024-03-22T11:33:10;101830.50;;;14.78;60.18
70248;BME280;57641;51.416;5.506;2024-03-22T11:35:36;101838.97;;;14.92;60.00
70248;BME280;57641;51.416;5.506;2024-03-22T11:38:01;101824.88;;;14.64;60.77
70248;BME280;57641;51.416;5.506;2024-03-22T11:40:30;101825.91;;;14.71;60.51
70248;BME280;57641;51.416;5.506;2024-03-22T11:42:57;101815.78;;;14.83;60.27
70248;BME280;57641;51.416;5.506;2024-03-22T11:45:23;101820.06;;;14.75;60.79
70248;BME280;57641;51.416;5.506;2024-03-22T11:47:50;101809.66;;;14.98;60.06
70248;BME280;57641;51.416;5.506;2024-03-22T11:50:16;101814.25;;;15.06;60.11
70248;BME280;57641;51.416;5.506;2024-03-22T11:52:42;101810.06;;;15.37;59.22
70248;BME280;57641;51.416;5.506;2024-03-22T11:55:08;101810.75;;;15.47;59.09
70248;BME280;57641;51.416;5.506;2024-03-22T11:57:35;101804.03;;;15.09;59.60
70248;BME280;57641;51.416;5.506;2024-03-22T12:00:01;101803.50;;;15.06;60.26
70248;BME280;57641;51.416;5.506;2024-03-22T12:02:31;101804.63;;;14.52;62.34
70248;BME280;57641;51.416;5.506;2024-03-22T12:04:57;101796.75;;;15.02;61.00
70248;BME280;57641;51.416;5.506;2024-03-22T12:07:23;101790.06;;;14.54;61.49
70248;BME280;57641;51.416;5.506;2024-03-22T12:09:49;101788.78;;;14.84;61.52
70248;BME280;57641;51.416;5.506;2024-03-22T12:12:15;101790.25;;;14.78;62.19
70248;BME280;57641;51.416;5.506;2024-03-22T12:14:40;101794.25;;;15.00;61.25
70248;BME280;57641;51.416;5.506;2024-03-22T12:17:07;101782.22;;;14.87;61.68
70248;BME280;57641;51.416;5.506;2024-03-22T12:19:35;101777.38;;;15.16;61.07
70248;BME280;57641;51.416;5.506;2024-03-22T12:22:01;101770.25;;;14.73;61.90
70248;BME280;57641;51.416;5.506;2024-03-22T12:24:27;101763.34;;;14.96;61.72
70248;BME280;57641;51.416;5.506;2024-03-22T12:26:53;101768.91;;;15.45;60.13
70248;BME280;57641;51.416;5.506;2024-03-22T12:29:19;101763.38;;;15.04;61.02
70248;BME280;57641;51.416;5.506;2024-03-22T12:31:47;101757.22;;;14.86;61.28
70248;BME280;57641;51.416;5.506;2024-03-22T12:34:13;101754.25;;;14.97;61.74
70248;BME280;57641;51.416;5.506;2024-03-22T12:36:38;101757.25;;;15.20;60.44
70248;BME280;57641;51.416;5.506;2024-03-22T12:39:04;101754.34;;;15.13;61.17
70248;BME280;57641;51.416;5.506;2024-03-22T12:41:30;101745.94;;;15.08;61.17
70248;BME280;57641;51.416;5.506;2024-03-22T12:43:56;101737.59;;;14.86;61.52